NCAR-RAP Real-Time Weather Data

Output produced by METARs form (24 April 2014  21:15 UTC)
found at http://weather.rap.ucar.edu/surface/
 
Conditions at: K4O4 observed 24 April 2014  21:01 UTC
Temperature: 27.0°C (81°F)
Dewpoint: 16.0°C (61°F) [RH = 51%]
Pressure (altimeter): 29.72 inches Hg (1006.5 mb)
Winds: from the SW (230 degrees) at 20 MPH (17 knots; 8.8 m/s)
gusting to 30 MPH (26 knots; 13.5 m/s)
Visibility: 10 or more miles (16+ km)
Ceiling: at least 12,000 feet AGL
Clouds: scattered clouds at 3900 feet AGL
Present Weather: automated observation with no human augmentation;
there may or may not be significant weather present at this time
K4O4 242101Z AUTO 23017G26KT 10SM SCT039 27/16 A2972 RMK AO2